sensor_id;sensor_type;location;lat;lon;timestamp;P1;durP1;ratioP1;P2;durP2;ratioP2
59145;SDS011;44928;53.074;6.646;2023-02-15T00:01:46;22.35;;;14.52;;
59145;SDS011;44928;53.074;6.646;2023-02-15T00:04:13;21.60;;;14.02;;
59145;SDS011;44928;53.074;6.646;2023-02-15T00:06:41;22.10;;;14.73;;
59145;SDS011;44928;53.074;6.646;2023-02-15T00:09:06;22.55;;;14.15;;
59145;SDS011;44928;53.074;6.646;2023-02-15T00:11:33;22.25;;;14.10;;
59145;SDS011;44928;53.074;6.646;2023-02-15T00:14:06;23.98;;;14.88;;
59145;SDS011;44928;53.074;6.646;2023-02-15T00:16:33;24.27;;;14.73;;
59145;SDS011;44928;53.074;6.646;2023-02-15T00:18:59;19.70;;;13.63;;
59145;SDS011;44928;53.074;6.646;2023-02-15T00:21:28;25.00;;;15.55;;
59145;SDS011;44928;53.074;6.646;2023-02-15T00:23:55;24.25;;;15.77;;
59145;SDS011;44928;53.074;6.646;2023-02-15T00:26:23;23.25;;;15.88;;
59145;SDS011;44928;53.074;6.646;2023-02-15T00:28:49;28.17;;;18.10;;
59145;SDS011;44928;53.074;6.646;2023-02-15T00:31:15;28.55;;;18.70;;
59145;SDS011;44928;53.074;6.646;2023-02-15T00:33:40;30.20;;;18.67;;
59145;SDS011;44928;53.074;6.646;2023-02-15T00:36:07;27.52;;;18.02;;
59145;SDS011;44928;53.074;6.646;2023-02-15T00:38:34;28.20;;;18.10;;
59145;SDS011;44928;53.074;6.646;2023-02-15T00:41:01;24.40;;;16.83;;
59145;SDS011;44928;53.074;6.646;2023-02-15T00:43:29;24.52;;;16.13;;
59145;SDS011;44928;53.074;6.646;2023-02-15T00:45:56;23.92;;;15.48;;
59145;SDS011;44928;53.074;6.646;2023-02-15T00:48:22;26.10;;;16.63;;
59145;SDS011;44928;53.074;6.646;2023-02-15T00:50:49;22.75;;;14.93;;
59145;SDS011;44928;53.074;6.646;2023-02-15T00:53:16;23.63;;;15.85;;
59145;SDS011;44928;53.074;6.646;2023-02-15T00:55:43;20.10;;;14.18;;
59145;SDS011;44928;53.074;6.646;2023-02-15T00:58:09;22.00;;;13.90;;
59145;SDS011;44928;53.074;6.646;2023-02-15T01:00:36;21.92;;;13.77;;
59145;SDS011;44928;53.074;6.646;2023-02-15T01:03:03;23.80;;;14.90;;
59145;SDS011;44928;53.074;6.646;2023-02-15T01:05:29;23.20;;;14.70;;
59145;SDS011;44928;53.074;6.646;2023-02-15T01:07:56;23.48;;;16.08;;
59145;SDS011;44928;53.074;6.646;2023-02-15T01:10:22;22.42;;;14.88;;
59145;SDS011;44928;53.074;6.646;2023-02-15T01:12:49;23.35;;;15.32;;
59145;SDS011;44928;53.074;6.646;2023-02-15T01:15:16;25.95;;;16.80;;
59145;SDS011;44928;53.074;6.646;2023-02-15T01:17:41;24.70;;;16.58;;
59145;SDS011;44928;53.074;6.646;2023-02-15T01:20:09;22.33;;;15.98;;
59145;SDS011;44928;53.074;6.646;2023-02-15T01:22:35;25.08;;;16.55;;
59145;SDS011;44928;53.074;6.646;2023-02-15T01:25:00;25.88;;;16.20;;
59145;SDS011;44928;53.074;6.646;2023-02-15T01:27:26;25.48;;;16.00;;
59145;SDS011;44928;53.074;6.646;2023-02-15T01:29:55;24.45;;;16.40;;
59145;SDS011;44928;53.074;6.646;2023-02-15T01:32:21;25.63;;;17.13;;
59145;SDS011;44928;53.074;6.646;2023-02-15T01:34:47;23.52;;;15.40;;
59145;SDS011;44928;53.074;6.646;2023-02-15T01:37:13;24.98;;;17.98;;
59145;SDS011;44928;53.074;6.646;2023-02-15T01:39:39;30.00;;;18.48;;
59145;SDS011;44928;53.074;6.646;2023-02-15T01:42:05;44.97;;;20.83;;
59145;SDS011;44928;53.074;6.646;2023-02-15T01:44:47;72.25;;;22.52;;
59145;SDS011;44928;53.074;6.646;2023-02-15T01:47:15;34.53;;;21.00;;
59145;SDS011;44928;53.074;6.646;2023-02-15T01:50:44;31.67;;;20.42;;
59145;SDS011;44928;53.074;6.646;2023-02-15T01:53:15;67.57;;;21.70;;
59145;SDS011;44928;53.074;6.646;2023-02-15T01:56:00;57.60;;;22.83;;
59145;SDS011;44928;53.074;6.646;2023-02-15T01:58:30;56.92;;;22.38;;
59145;SDS011;44928;53.074;6.646;2023-02-15T02:00:58;35.47;;;22.27;;
59145;SDS011;44928;53.074;6.646;2023-02-15T02:03:30;33.92;;;21.70;;
59145;SDS011;44928;53.074;6.646;2023-02-15T02:06:01;33.97;;;22.33;;
59145;SDS011;44928;53.074;6.646;2023-02-15T02:08:27;31.58;;;20.75;;
59145;SDS011;44928;53.074;6.646;2023-02-15T02:10:53;32.13;;;22.30;;
59145;SDS011;44928;53.074;6.646;2023-02-15T02:13:19;36.30;;;22.63;;
59145;SDS011;44928;53.074;6.646;2023-02-15T02:15:59;36.13;;;23.08;;
59145;SDS011;44928;53.074;6.646;2023-02-15T02:24:08;31.20;;;21.42;;
59145;SDS011;44928;53.074;6.646;2023-02-15T02:29:38;30.08;;;20.33;;
59145;SDS011;44928;53.074;6.646;2023-02-15T02:32:28;29.65;;;21.10;;
59145;SDS011;44928;53.074;6.646;2023-02-15T02:35:09;33.83;;;21.10;;
59145;SDS011;44928;53.074;6.646;2023-02-15T02:37:46;32.85;;;21.08;;
59145;SDS011;44928;53.074;6.646;2023-02-15T02:40:23;36.08;;;23.35;;
59145;SDS011;44928;53.074;6.646;2023-02-15T02:43:02;41.97;;;23.98;;
59145;SDS011;44928;53.074;6.646;2023-02-15T02:45:38;42.25;;;22.67;;
59145;SDS011;44928;53.074;6.646;2023-02-15T02:48:10;32.60;;;21.70;;
59145;SDS011;44928;53.074;6.646;2023-02-15T02:50:44;30.75;;;20.98;;
59145;SDS011;44928;53.074;6.646;2023-02-15T02:53:09;31.02;;;21.52;;
59145;SDS011;44928;53.074;6.646;2023-02-15T02:58:28;30.52;;;20.23;;
59145;SDS011;44928;53.074;6.646;2023-02-15T03:01:13;30.38;;;21.15;;
59145;SDS011;44928;53.074;6.646;2023-02-15T03:03:53;29.92;;;20.65;;
59145;SDS011;44928;53.074;6.646;2023-02-15T03:06:44;28.80;;;20.50;;
59145;SDS011;44928;53.074;6.646;2023-02-15T03:11:49;36.40;;;23.00;;
59145;SDS011;44928;53.074;6.646;2023-02-15T03:14:16;42.35;;;26.40;;
59145;SDS011;44928;53.074;6.646;2023-02-15T03:16:43;37.60;;;23.65;;
59145;SDS011;44928;53.074;6.646;2023-02-15T03:19:17;38.03;;;25.02;;
59145;SDS011;44928;53.074;6.646;2023-02-15T03:21:50;34.72;;;21.77;;
59145;SDS011;44928;53.074;6.646;2023-02-15T03:24:23;32.70;;;22.30;;
59145;SDS011;44928;53.074;6.646;2023-02-15T03:27:17;32.85;;;22.30;;
59145;SDS011;44928;53.074;6.646;2023-02-15T03:29:48;30.38;;;21.33;;
59145;SDS011;44928;53.074;6.646;2023-02-15T03:34:44;28.95;;;19.02;;
59145;SDS011;44928;53.074;6.646;2023-02-15T03:39:53;27.40;;;19.33;;
59145;SDS011;44928;53.074;6.646;2023-02-15T03:42:43;27.17;;;19.88;;
59145;SDS011;44928;53.074;6.646;2023-02-15T03:45:13;26.48;;;19.42;;
59145;SDS011;44928;53.074;6.646;2023-02-15T03:47:46;26.33;;;19.27;;
59145;SDS011;44928;53.074;6.646;2023-02-15T03:50:18;25.50;;;18.50;;
59145;SDS011;44928;53.074;6.646;2023-02-15T03:53:06;24.67;;;18.80;;
59145;SDS011;44928;53.074;6.646;2023-02-15T03:55:35;25.60;;;17.85;;
59145;SDS011;44928;53.074;6.646;2023-02-15T03:58:01;24.50;;;18.20;;
59145;SDS011;44928;53.074;6.646;2023-02-15T04:00:51;24.80;;;18.20;;
59145;SDS011;44928;53.074;6.646;2023-02-15T04:03:49;23.05;;;16.65;;
59145;SDS011;44928;53.074;6.646;2023-02-15T04:06:22;23.95;;;17.67;;
59145;SDS011;44928;53.074;6.646;2023-02-15T04:08:48;23.08;;;17.40;;
59145;SDS011;44928;53.074;6.646;2023-02-15T04:11:32;25.90;;;18.13;;
59145;SDS011;44928;53.074;6.646;2023-02-15T04:13:58;27.88;;;19.23;;
59145;SDS011;44928;53.074;6.646;2023-02-15T04:16:44;32.58;;;20.23;;
59145;SDS011;44928;53.074;6.646;2023-02-15T04:19:10;27.80;;;19.83;;
59145;SDS011;44928;53.074;6.646;2023-02-15T04:21:54;27.65;;;20.17;;
59145;SDS011;44928;53.074;6.646;2023-02-15T04:24:38;26.13;;;19.13;;
59145;SDS011;44928;53.074;6.646;2023-02-15T04:27:22;27.13;;;18.58;;
59145;SDS011;44928;53.074;6.646;2023-02-15T04:29:49;24.13;;;18.05;;
59145;SDS011;44928;53.074;6.646;2023-02-15T04:32:15;25.77;;;19.20;;
59145;SDS011;44928;53.074;6.646;2023-02-15T04:34:41;26.55;;;18.58;;
59145;SDS011;44928;53.074;6.646;2023-02-15T04:37:07;26.75;;;18.60;;
59145;SDS011;44928;53.074;6.646;2023-02-15T04:39:32;27.00;;;19.65;;
59145;SDS011;44928;53.074;6.646;2023-02-15T04:41:58;30.33;;;20.77;;
59145;SDS011;44928;53.074;6.646;2023-02-15T04:44:24;28.55;;;19.85;;
59145;SDS011;44928;53.074;6.646;2023-02-15T04:46:50;31.42;;;21.25;;
59145;SDS011;44928;53.074;6.646;2023-02-15T04:49:15;32.22;;;22.08;;
59145;SDS011;44928;53.074;6.646;2023-02-15T04:51:41;31.67;;;22.55;;
59145;SDS011;44928;53.074;6.646;2023-02-15T04:54:07;31.40;;;21.55;;
59145;SDS011;44928;53.074;6.646;2023-02-15T04:56:32;31.83;;;22.30;;
59145;SDS011;44928;53.074;6.646;2023-02-15T04:58:59;34.38;;;22.10;;
59145;SDS011;44928;53.074;6.646;2023-02-15T05:01:25;33.15;;;23.95;;
59145;SDS011;44928;53.074;6.646;2023-02-15T05:03:51;35.40;;;23.73;;
59145;SDS011;44928;53.074;6.646;2023-02-15T05:06:17;36.58;;;22.92;;
59145;SDS011;44928;53.074;6.646;2023-02-15T05:08:43;38.30;;;26.27;;
59145;SDS011;44928;53.074;6.646;2023-02-15T05:11:08;37.40;;;24.55;;
59145;SDS011;44928;53.074;6.646;2023-02-15T05:13:34;37.05;;;25.88;;
59145;SDS011;44928;53.074;6.646;2023-02-15T05:16:00;37.53;;;25.90;;
59145;SDS011;44928;53.074;6.646;2023-02-15T05:18:26;41.92;;;28.25;;
59145;SDS011;44928;53.074;6.646;2023-02-15T05:20:52;42.92;;;27.70;;
59145;SDS011;44928;53.074;6.646;2023-02-15T05:23:18;41.70;;;27.35;;
59145;SDS011;44928;53.074;6.646;2023-02-15T05:25:50;46.58;;;28.98;;
59145;SDS011;44928;53.074;6.646;2023-02-15T05:28:34;48.17;;;31.02;;
59145;SDS011;44928;53.074;6.646;2023-02-15T05:33:32;50.63;;;33.58;;
59145;SDS011;44928;53.074;6.646;2023-02-15T05:35:59;51.75;;;33.22;;
59145;SDS011;44928;53.074;6.646;2023-02-15T05:38:25;59.15;;;34.30;;
59145;SDS011;44928;53.074;6.646;2023-02-15T05:40:51;58.28;;;34.78;;
59145;SDS011;44928;53.074;6.646;2023-02-15T05:43:17;111.80;;;38.03;;
59145;SDS011;44928;53.074;6.646;2023-02-15T05:45:49;101.10;;;36.15;;
59145;SDS011;44928;53.074;6.646;2023-02-15T05:48:16;51.63;;;32.20;;
59145;SDS011;44928;53.074;6.646;2023-02-15T05:50:43;54.67;;;33.17;;
59145;SDS011;44928;53.074;6.646;2023-02-15T05:53:09;51.05;;;32.22;;
59145;SDS011;44928;53.074;6.646;2023-02-15T05:55:37;49.80;;;32.13;;
59145;SDS011;44928;53.074;6.646;2023-02-15T05:58:04;75.97;;;33.05;;
59145;SDS011;44928;53.074;6.646;2023-02-15T06:00:30;51.10;;;33.03;;
59145;SDS011;44928;53.074;6.646;2023-02-15T06:02:56;71.82;;;33.88;;
59145;SDS011;44928;53.074;6.646;2023-02-15T06:05:22;62.30;;;32.22;;
59145;SDS011;44928;53.074;6.646;2023-02-15T06:07:48;45.17;;;30.20;;
59145;SDS011;44928;53.074;6.646;2023-02-15T06:10:14;65.85;;;31.60;;
59145;SDS011;44928;53.074;6.646;2023-02-15T06:12:39;54.60;;;31.35;;
59145;SDS011;44928;53.074;6.646;2023-02-15T06:15:05;54.47;;;30.45;;
59145;SDS011;44928;53.074;6.646;2023-02-15T06:17:31;41.78;;;31.02;;
59145;SDS011;44928;53.074;6.646;2023-02-15T06:19:58;43.55;;;31.02;;
59145;SDS011;44928;53.074;6.646;2023-02-15T06:22:23;54.33;;;30.90;;
59145;SDS011;44928;53.074;6.646;2023-02-15T06:24:49;67.57;;;32.20;;
59145;SDS011;44928;53.074;6.646;2023-02-15T06:27:15;43.53;;;29.30;;
59145;SDS011;44928;53.074;6.646;2023-02-15T06:29:41;47.40;;;27.88;;
59145;SDS011;44928;53.074;6.646;2023-02-15T06:32:06;38.80;;;27.70;;
59145;SDS011;44928;53.074;6.646;2023-02-15T06:34:32;38.20;;;27.58;;
59145;SDS011;44928;53.074;6.646;2023-02-15T06:36:58;36.63;;;27.40;;
59145;SDS011;44928;53.074;6.646;2023-02-15T06:39:24;41.30;;;26.30;;
59145;SDS011;44928;53.074;6.646;2023-02-15T06:41:50;38.47;;;27.50;;
59145;SDS011;44928;53.074;6.646;2023-02-15T06:44:16;38.28;;;25.58;;
59145;SDS011;44928;53.074;6.646;2023-02-15T06:46:41;39.15;;;27.73;;
59145;SDS011;44928;53.074;6.646;2023-02-15T06:49:07;35.70;;;25.95;;
59145;SDS011;44928;53.074;6.646;2023-02-15T06:51:33;34.95;;;26.63;;
59145;SDS011;44928;53.074;6.646;2023-02-15T06:53:59;39.13;;;26.20;;
59145;SDS011;44928;53.074;6.646;2023-02-15T06:56:25;39.10;;;27.45;;
59145;SDS011;44928;53.074;6.646;2023-02-15T06:58:51;36.85;;;25.50;;
59145;SDS011;44928;53.074;6.646;2023-02-15T07:01:17;37.90;;;26.52;;
59145;SDS011;44928;53.074;6.646;2023-02-15T07:03:43;36.78;;;25.20;;
59145;SDS011;44928;53.074;6.646;2023-02-15T07:06:10;36.28;;;24.42;;
59145;SDS011;44928;53.074;6.646;2023-02-15T07:08:36;37.30;;;28.05;;
59145;SDS011;44928;53.074;6.646;2023-02-15T07:11:03;41.45;;;28.73;;
59145;SDS011;44928;53.074;6.646;2023-02-15T07:14:00;35.50;;;23.42;;
59145;SDS011;44928;53.074;6.646;2023-02-15T07:16:25;34.25;;;24.52;;
59145;SDS011;44928;53.074;6.646;2023-02-15T07:18:51;33.83;;;24.52;;
59145;SDS011;44928;53.074;6.646;2023-02-15T07:21:17;36.05;;;24.15;;
59145;SDS011;44928;53.074;6.646;2023-02-15T07:23:43;36.15;;;24.83;;
59145;SDS011;44928;53.074;6.646;2023-02-15T07:26:08;33.72;;;23.58;;
59145;SDS011;44928;53.074;6.646;2023-02-15T07:28:34;33.42;;;23.35;;
59145;SDS011;44928;53.074;6.646;2023-02-15T07:31:01;32.45;;;23.33;;
59145;SDS011;44928;53.074;6.646;2023-02-15T07:33:30;31.52;;;22.33;;
59145;SDS011;44928;53.074;6.646;2023-02-15T07:35:57;32.85;;;23.80;;
59145;SDS011;44928;53.074;6.646;2023-02-15T07:38:27;33.58;;;23.52;;
59145;SDS011;44928;53.074;6.646;2023-02-15T07:41:01;32.10;;;22.30;;
59145;SDS011;44928;53.074;6.646;2023-02-15T07:46:01;32.60;;;22.05;;
59145;SDS011;44928;53.074;6.646;2023-02-15T07:48:28;31.48;;;22.40;;
59145;SDS011;44928;53.074;6.646;2023-02-15T07:50:54;31.48;;;22.92;;
59145;SDS011;44928;53.074;6.646;2023-02-15T07:53:24;33.17;;;22.25;;
59145;SDS011;44928;53.074;6.646;2023-02-15T07:55:50;34.88;;;24.15;;
59145;SDS011;44928;53.074;6.646;2023-02-15T07:58:17;32.50;;;23.30;;
59145;SDS011;44928;53.074;6.646;2023-02-15T08:00:43;35.63;;;24.08;;
59145;SDS011;44928;53.074;6.646;2023-02-15T08:03:31;32.58;;;22.23;;
59145;SDS011;44928;53.074;6.646;2023-02-15T08:05:57;36.40;;;24.25;;
59145;SDS011;44928;53.074;6.646;2023-02-15T08:08:24;32.58;;;22.35;;
59145;SDS011;44928;53.074;6.646;2023-02-15T08:13:59;35.28;;;24.27;;
59145;SDS011;44928;53.074;6.646;2023-02-15T08:16:46;36.50;;;24.25;;
59145;SDS011;44928;53.074;6.646;2023-02-15T08:19:25;38.80;;;27.45;;
59145;SDS011;44928;53.074;6.646;2023-02-15T08:21:56;37.05;;;25.13;;
59145;SDS011;44928;53.074;6.646;2023-02-15T08:24:35;35.15;;;22.75;;
59145;SDS011;44928;53.074;6.646;2023-02-15T08:27:02;35.10;;;23.10;;
59145;SDS011;44928;53.074;6.646;2023-02-15T08:29:30;33.90;;;23.77;;
59145;SDS011;44928;53.074;6.646;2023-02-15T08:31:57;36.35;;;23.52;;
59145;SDS011;44928;53.074;6.646;2023-02-15T08:34:34;34.60;;;22.48;;
59145;SDS011;44928;53.074;6.646;2023-02-15T08:37:01;34.30;;;23.60;;
59145;SDS011;44928;53.074;6.646;2023-02-15T08:39:28;36.55;;;24.20;;
59145;SDS011;44928;53.074;6.646;2023-02-15T08:41:53;36.50;;;23.27;;
59145;SDS011;44928;53.074;6.646;2023-02-15T08:44:19;32.95;;;22.90;;
59145;SDS011;44928;53.074;6.646;2023-02-15T08:46:46;36.38;;;24.15;;
59145;SDS011;44928;53.074;6.646;2023-02-15T08:49:15;39.63;;;25.00;;
59145;SDS011;44928;53.074;6.646;2023-02-15T08:51:43;38.42;;;24.23;;
59145;SDS011;44928;53.074;6.646;2023-02-15T08:54:10;36.75;;;24.58;;
59145;SDS011;44928;53.074;6.646;2023-02-15T08:56:39;37.65;;;24.63;;
59145;SDS011;44928;53.074;6.646;2023-02-15T08:59:07;34.58;;;23.90;;
59145;SDS011;44928;53.074;6.646;2023-02-15T09:01:37;38.85;;;25.33;;
59145;SDS011;44928;53.074;6.646;2023-02-15T09:04:06;33.53;;;23.48;;
59145;SDS011;44928;53.074;6.646;2023-02-15T09:06:36;37.88;;;24.83;;
59145;SDS011;44928;53.074;6.646;2023-02-15T09:09:03;38.20;;;25.80;;
59145;SDS011;44928;53.074;6.646;2023-02-15T09:11:32;39.65;;;25.58;;
59145;SDS011;44928;53.074;6.646;2023-02-15T09:14:01;37.10;;;25.05;;
59145;SDS011;44928;53.074;6.646;2023-02-15T09:16:29;36.95;;;24.85;;
59145;SDS011;44928;53.074;6.646;2023-02-15T09:18:56;41.00;;;26.83;;
59145;SDS011;44928;53.074;6.646;2023-02-15T09:21:23;39.28;;;26.15;;
59145;SDS011;44928;53.074;6.646;2023-02-15T09:23:52;38.78;;;25.75;;
59145;SDS011;44928;53.074;6.646;2023-02-15T09:26:21;43.53;;;25.77;;
59145;SDS011;44928;53.074;6.646;2023-02-15T09:28:51;43.45;;;25.38;;
59145;SDS011;44928;53.074;6.646;2023-02-15T09:31:23;39.95;;;26.23;;
59145;SDS011;44928;53.074;6.646;2023-02-15T09:33:50;37.25;;;27.00;;
59145;SDS011;44928;53.074;6.646;2023-02-15T09:36:23;41.88;;;26.35;;
59145;SDS011;44928;53.074;6.646;2023-02-15T09:38:58;42.47;;;26.42;;
59145;SDS011;44928;53.074;6.646;2023-02-15T09:52:27;38.58;;;24.90;;
59145;SDS011;44928;53.074;6.646;2023-02-15T10:01:35;41.05;;;26.65;;
59145;SDS011;44928;53.074;6.646;2023-02-15T10:04:04;44.85;;;27.75;;
59145;SDS011;44928;53.074;6.646;2023-02-15T10:09:41;40.53;;;26.58;;
59145;SDS011;44928;53.074;6.646;2023-02-15T10:12:38;40.92;;;25.95;;
59145;SDS011;44928;53.074;6.646;2023-02-15T10:15:15;40.78;;;27.75;;
59145;SDS011;44928;53.074;6.646;2023-02-15T10:29:10;42.55;;;27.70;;
59145;SDS011;44928;53.074;6.646;2023-02-15T10:31:55;38.45;;;25.63;;
59145;SDS011;44928;53.074;6.646;2023-02-15T10:37:17;41.03;;;27.88;;
59145;SDS011;44928;53.074;6.646;2023-02-15T10:51:02;40.88;;;27.63;;
59145;SDS011;44928;53.074;6.646;2023-02-15T11:04:36;39.05;;;27.00;;
59145;SDS011;44928;53.074;6.646;2023-02-15T11:07:27;39.20;;;25.40;;
59145;SDS011;44928;53.074;6.646;2023-02-15T11:10:01;40.10;;;26.85;;
59145;SDS011;44928;53.074;6.646;2023-02-15T11:12:49;36.13;;;26.00;;
59145;SDS011;44928;53.074;6.646;2023-02-15T11:15:38;41.13;;;27.48;;
59145;SDS011;44928;53.074;6.646;2023-02-15T11:18:16;39.63;;;26.90;;
59145;SDS011;44928;53.074;6.646;2023-02-15T11:20:59;38.22;;;27.15;;
59145;SDS011;44928;53.074;6.646;2023-02-15T11:23:40;37.67;;;25.70;;
59145;SDS011;44928;53.074;6.646;2023-02-15T11:26:14;37.42;;;25.10;;
59145;SDS011;44928;53.074;6.646;2023-02-15T11:28:54;38.45;;;25.42;;
59145;SDS011;44928;53.074;6.646;2023-02-15T11:31:34;39.00;;;26.40;;
59145;SDS011;44928;53.074;6.646;2023-02-15T11:34:15;40.47;;;25.52;;
59145;SDS011;44928;53.074;6.646;2023-02-15T11:36:52;40.50;;;24.40;;
59145;SDS011;44928;53.074;6.646;2023-02-15T11:39:21;38.80;;;25.30;;
59145;SDS011;44928;53.074;6.646;2023-02-15T11:41:52;40.60;;;25.98;;
59145;SDS011;44928;53.074;6.646;2023-02-15T11:46:51;38.55;;;24.38;;
59145;SDS011;44928;53.074;6.646;2023-02-15T11:51:55;36.95;;;25.05;;
59145;SDS011;44928;53.074;6.646;2023-02-15T11:54:24;37.63;;;25.70;;
59145;SDS011;44928;53.074;6.646;2023-02-15T11:56:58;36.00;;;23.75;;
59145;SDS011;44928;53.074;6.646;2023-02-15T11:59:31;38.05;;;25.65;;
59145;SDS011;44928;53.074;6.646;2023-02-15T12:02:01;35.33;;;25.58;;
59145;SDS011;44928;53.074;6.646;2023-02-15T12:04:32;36.30;;;24.67;;
59145;SDS011;44928;53.074;6.646;2023-02-15T12:07:10;37.95;;;24.60;;
59145;SDS011;44928;53.074;6.646;2023-02-15T12:12:27;37.15;;;25.13;;
59145;SDS011;44928;53.074;6.646;2023-02-15T12:15:03;36.83;;;24.48;;
59145;SDS011;44928;53.074;6.646;2023-02-15T12:17:40;35.63;;;24.90;;
59145;SDS011;44928;53.074;6.646;2023-02-15T12:22:45;39.30;;;27.15;;
59145;SDS011;44928;53.074;6.646;2023-02-15T12:25:59;39.97;;;26.92;;
59145;SDS011;44928;53.074;6.646;2023-02-15T12:28:26;39.03;;;26.27;;
59145;SDS011;44928;53.074;6.646;2023-02-15T12:31:04;41.05;;;27.60;;
59145;SDS011;44928;53.074;6.646;2023-02-15T12:33:45;40.10;;;26.40;;
59145;SDS011;44928;53.074;6.646;2023-02-15T12:36:18;40.58;;;27.65;;
59145;SDS011;44928;53.074;6.646;2023-02-15T12:39:03;40.63;;;26.67;;
59145;SDS011;44928;53.074;6.646;2023-02-15T12:41:31;40.63;;;27.02;;
59145;SDS011;44928;53.074;6.646;2023-02-15T12:46:34;39.28;;;26.85;;
59145;SDS011;44928;53.074;6.646;2023-02-15T12:49:07;44.45;;;27.52;;
59145;SDS011;44928;53.074;6.646;2023-02-15T12:51:45;41.25;;;27.55;;
59145;SDS011;44928;53.074;6.646;2023-02-15T12:54:20;40.25;;;27.10;;
59145;SDS011;44928;53.074;6.646;2023-02-15T12:56:54;36.83;;;25.55;;
59145;SDS011;44928;53.074;6.646;2023-02-15T12:59:20;41.35;;;27.27;;
59145;SDS011;44928;53.074;6.646;2023-02-15T13:01:46;42.70;;;28.20;;
59145;SDS011;44928;53.074;6.646;2023-02-15T13:04:34;40.75;;;27.35;;
59145;SDS011;44928;53.074;6.646;2023-02-15T13:07:01;40.35;;;26.58;;
59145;SDS011;44928;53.074;6.646;2023-02-15T13:11:57;39.70;;;27.77;;
59145;SDS011;44928;53.074;6.646;2023-02-15T13:14:34;36.88;;;25.25;;
59145;SDS011;44928;53.074;6.646;2023-02-15T13:17:03;38.28;;;25.33;;
59145;SDS011;44928;53.074;6.646;2023-02-15T13:21:58;37.45;;;24.98;;
59145;SDS011;44928;53.074;6.646;2023-02-15T13:24:39;36.47;;;24.13;;
59145;SDS011;44928;53.074;6.646;2023-02-15T13:27:10;36.15;;;23.95;;
59145;SDS011;44928;53.074;6.646;2023-02-15T13:29:50;36.03;;;23.92;;
59145;SDS011;44928;53.074;6.646;2023-02-15T13:32:27;36.47;;;24.20;;
59145;SDS011;44928;53.074;6.646;2023-02-15T13:35:05;35.90;;;22.98;;
59145;SDS011;44928;53.074;6.646;2023-02-15T13:40:28;37.90;;;23.75;;
59145;SDS011;44928;53.074;6.646;2023-02-15T13:45:51;35.30;;;23.13;;
59145;SDS011;44928;53.074;6.646;2023-02-15T13:56:32;36.97;;;22.75;;
59145;SDS011;44928;53.074;6.646;2023-02-15T13:59:26;33.53;;;22.95;;
59145;SDS011;44928;53.074;6.646;2023-02-15T14:02:05;35.05;;;23.55;;
59145;SDS011;44928;53.074;6.646;2023-02-15T14:10:31;35.08;;;22.52;;
59145;SDS011;44928;53.074;6.646;2023-02-15T14:13:14;34.47;;;21.80;;
59145;SDS011;44928;53.074;6.646;2023-02-15T14:15:56;33.08;;;22.70;;
59145;SDS011;44928;53.074;6.646;2023-02-15T14:32:07;32.10;;;22.40;;
59145;SDS011;44928;53.074;6.646;2023-02-15T14:46:32;36.83;;;24.88;;
59145;SDS011;44928;53.074;6.646;2023-02-15T14:49:14;34.83;;;22.63;;
59145;SDS011;44928;53.074;6.646;2023-02-15T14:52:10;33.63;;;23.13;;
59145;SDS011;44928;53.074;6.646;2023-02-15T15:04:37;34.65;;;22.20;;
59145;SDS011;44928;53.074;6.646;2023-02-15T15:09:42;33.20;;;23.80;;
59145;SDS011;44928;53.074;6.646;2023-02-15T15:12:15;31.98;;;22.55;;
59145;SDS011;44928;53.074;6.646;2023-02-15T15:14:47;33.45;;;22.83;;
59145;SDS011;44928;53.074;6.646;2023-02-15T15:19:58;33.47;;;23.00;;
59145;SDS011;44928;53.074;6.646;2023-02-15T15:22:26;33.75;;;22.83;;
59145;SDS011;44928;53.074;6.646;2023-02-15T15:24:54;31.60;;;22.52;;
59145;SDS011;44928;53.074;6.646;2023-02-15T15:49:50;32.58;;;22.92;;
59145;SDS011;44928;53.074;6.646;2023-02-15T15:52:21;32.20;;;22.85;;
59145;SDS011;44928;53.074;6.646;2023-02-15T15:54:53;33.85;;;23.02;;
59145;SDS011;44928;53.074;6.646;2023-02-15T15:59:53;33.80;;;23.33;;
59145;SDS011;44928;53.074;6.646;2023-02-15T16:02:23;34.15;;;23.92;;
59145;SDS011;44928;53.074;6.646;2023-02-15T16:04:49;33.92;;;23.02;;
59145;SDS011;44928;53.074;6.646;2023-02-15T16:09:54;34.78;;;23.80;;
59145;SDS011;44928;53.074;6.646;2023-02-15T16:12:34;33.88;;;22.98;;
59145;SDS011;44928;53.074;6.646;2023-02-15T16:17:52;34.65;;;24.42;;
59145;SDS011;44928;53.074;6.646;2023-02-15T16:20:29;33.22;;;22.75;;
59145;SDS011;44928;53.074;6.646;2023-02-15T16:23:07;33.17;;;22.38;;
59145;SDS011;44928;53.074;6.646;2023-02-15T16:28:39;30.67;;;22.10;;
59145;SDS011;44928;53.074;6.646;2023-02-15T16:31:13;34.00;;;22.67;;
59145;SDS011;44928;53.074;6.646;2023-02-15T16:33:41;34.47;;;23.65;;
59145;SDS011;44928;53.074;6.646;2023-02-15T16:36:11;45.72;;;36.95;;
59145;SDS011;44928;53.074;6.646;2023-02-15T16:41:11;37.03;;;27.08;;
59145;SDS011;44928;53.074;6.646;2023-02-15T16:43:38;35.85;;;24.70;;
59145;SDS011;44928;53.074;6.646;2023-02-15T16:46:14;34.42;;;24.48;;
59145;SDS011;44928;53.074;6.646;2023-02-15T16:48:57;35.47;;;23.08;;
59145;SDS011;44928;53.074;6.646;2023-02-15T16:51:28;32.28;;;23.25;;
59145;SDS011;44928;53.074;6.646;2023-02-15T16:53:56;37.80;;;24.48;;
59145;SDS011;44928;53.074;6.646;2023-02-15T16:56:29;37.38;;;26.38;;
59145;SDS011;44928;53.074;6.646;2023-02-15T16:58:56;40.08;;;26.45;;
59145;SDS011;44928;53.074;6.646;2023-02-15T17:01:24;34.65;;;24.70;;
59145;SDS011;44928;53.074;6.646;2023-02-15T17:06:57;35.65;;;23.90;;
59145;SDS011;44928;53.074;6.646;2023-02-15T17:09:23;40.28;;;28.45;;
59145;SDS011;44928;53.074;6.646;2023-02-15T17:11:50;32.90;;;24.23;;
59145;SDS011;44928;53.074;6.646;2023-02-15T17:14:20;34.05;;;24.30;;
59145;SDS011;44928;53.074;6.646;2023-02-15T17:16:58;34.78;;;24.15;;
59145;SDS011;44928;53.074;6.646;2023-02-15T17:22:17;32.20;;;24.10;;
59145;SDS011;44928;53.074;6.646;2023-02-15T17:24:59;38.40;;;24.98;;
59145;SDS011;44928;53.074;6.646;2023-02-15T17:27:28;34.92;;;24.30;;
59145;SDS011;44928;53.074;6.646;2023-02-15T17:30:01;36.40;;;23.70;;
59145;SDS011;44928;53.074;6.646;2023-02-15T17:32:37;40.75;;;26.33;;
59145;SDS011;44928;53.074;6.646;2023-02-15T17:35:20;37.15;;;24.23;;
59145;SDS011;44928;53.074;6.646;2023-02-15T17:37:50;37.30;;;25.73;;
59145;SDS011;44928;53.074;6.646;2023-02-15T17:40:29;38.78;;;25.95;;
59145;SDS011;44928;53.074;6.646;2023-02-15T17:42:56;35.72;;;25.10;;
59145;SDS011;44928;53.074;6.646;2023-02-15T17:45:25;76.95;;;44.45;;
59145;SDS011;44928;53.074;6.646;2023-02-15T17:47:55;41.85;;;26.80;;
59145;SDS011;44928;53.074;6.646;2023-02-15T17:50:25;68.35;;;59.28;;
59145;SDS011;44928;53.074;6.646;2023-02-15T17:52:53;58.22;;;46.05;;
59145;SDS011;44928;53.074;6.646;2023-02-15T17:55:21;36.38;;;25.33;;
59145;SDS011;44928;53.074;6.646;2023-02-15T17:58:00;36.03;;;25.42;;
59145;SDS011;44928;53.074;6.646;2023-02-15T18:00:28;38.10;;;25.40;;
59145;SDS011;44928;53.074;6.646;2023-02-15T18:03:13;41.67;;;27.63;;
59145;SDS011;44928;53.074;6.646;2023-02-15T18:05:58;41.70;;;26.67;;
59145;SDS011;44928;53.074;6.646;2023-02-15T18:08:42;38.10;;;24.55;;
59145;SDS011;44928;53.074;6.646;2023-02-15T18:11:26;35.45;;;24.15;;